Hlavní strana
METAR-TAF:

METAR-TAF

Letiště :

St. Gallen, Švýcarsko

zeměpisná šířka: 47-29-06N, zeměpisná délka: 009-33-43E, výška: 398 m

Aktuální stav počasí

Zpráva byla vytvořena před 29 minutami, v 01:20 UTC
Východní vítr 2 kt
Teplota 17°C
Vlhkost vzduchu 88%
Tlak 1022 hPa
Viditelnost 10 km a více
Žádná oblačnost pod 1500 m, nevyskytují se cumulonimby.

METAR: LSZR 190120Z AUTO 10002KT CAVOK 17/15 Q1022

Čas: 03:49 (01:49 UTC)

Předpověď počasí

Zpráva byla vytvořena před 11 hodinami a 24 minutami, v 14:25 UTC
Předpověď platná od 18 v 15 UTC do 18 v 24 UTC
Západní vítr 6 kt
Viditelnost 10 km a více
Polojasno ve výšce 4000 ft
Pravděpodobnost 30% :
Dočasný
od 18 v 15 UTC do 18 v 21 UTC
Skoro jasno ve výšce 4000 ft, Vertikální cumulus.

TAF: LSZR 181425Z 1815/1824 28006KT 9999 SCT040 PROB30 TEMPO 1815/1821 FEW040TCU

Stav a předpovědi počasí z více než 4 000 letišť (zprávy METAR a TAF).

Červené a žluté tečky na mapě představují dostupné meteorologické stanice.

Když kurzor umístíte na tečku, zobrazí se název stanice.

Pak kliknutím zobrazíte stav a předpověď počasí.

Chcete-li změnit mapu, kliknutím na zelené tlačítko se znaménkem +mapu přiblížíte, kliknutím na zelené tlačítko se znaménkem – mapu oddálíte a kliknutím na zelené šipky přejdete na sousední mapy.


METAR-TAF: